createdAt,value
2018-03-18T00:01:51.975Z,5.00
2018-03-18T00:04:19.986Z,5.20
2018-03-18T00:06:47.641Z,4.00
2018-03-18T00:09:15.824Z,4.40
2018-03-18T00:11:43.433Z,5.53
2018-03-18T00:14:11.701Z,5.80
2018-03-18T00:16:39.309Z,6.43
2018-03-18T00:19:07.093Z,6.22
2018-03-18T00:21:34.746Z,6.80
2018-03-18T00:24:02.407Z,6.35
2018-03-18T00:26:30.020Z,4.20
2018-03-18T00:28:58.452Z,6.23
2018-03-18T00:31:26.113Z,4.57
2018-03-18T00:33:53.766Z,5.00
2018-03-18T00:36:21.650Z,4.10
2018-03-18T00:38:49.884Z,5.00
2018-03-18T00:41:17.544Z,5.47
2018-03-18T00:43:45.161Z,5.20
2018-03-18T00:46:13.158Z,6.60
2018-03-18T00:48:40.777Z,6.05
2018-03-18T00:51:08.449Z,6.40
2018-03-18T00:53:36.056Z,5.70
2018-03-18T00:56:04.126Z,6.15
2018-03-18T00:58:32.228Z,5.30
2018-03-18T01:00:59.882Z,6.28
2018-03-18T01:03:27.538Z,6.03
2018-03-18T01:05:55.159Z,6.65
2018-03-18T01:08:22.817Z,6.40
2018-03-18T01:10:50.432Z,5.35
2018-03-18T01:13:18.106Z,6.07
2018-03-18T01:15:45.716Z,4.40
2018-03-18T01:18:13.329Z,6.60
2018-03-18T01:20:40.994Z,5.18
2018-03-18T01:23:08.652Z,5.80
2018-03-18T01:25:36.264Z,6.55
2018-03-18T01:28:03.937Z,6.60
2018-03-18T01:30:31.599Z,6.03
2018-03-18T01:32:59.277Z,5.27
2018-03-18T01:35:26.896Z,6.25
2018-03-18T01:37:54.552Z,5.97
2018-03-18T01:40:22.208Z,5.87
2018-03-18T01:42:49.864Z,6.80
2018-03-18T01:45:17.524Z,6.10
2018-03-18T01:47:45.939Z,7.27
2018-03-18T01:50:13.598Z,6.55
2018-03-18T01:52:41.212Z,6.13
2018-03-18T01:55:08.822Z,4.97
2018-03-18T01:57:36.482Z,5.77
2018-03-18T02:00:04.244Z,6.15
2018-03-18T02:02:31.859Z,7.27
2018-03-18T02:04:59.518Z,7.28
2018-03-18T02:07:27.124Z,7.40
2018-03-18T02:09:54.781Z,5.87
2018-03-18T02:12:22.580Z,3.77
2018-03-18T02:14:50.233Z,6.30
2018-03-18T02:17:17.844Z,4.10
2018-03-18T02:19:45.512Z,7.13
2018-03-18T02:22:13.308Z,4.33
2018-03-18T02:24:40.929Z,5.27
2018-03-18T02:27:09.149Z,6.20
2018-03-18T02:29:36.801Z,7.37
2018-03-18T02:32:04.835Z,6.43
2018-03-18T02:34:32.533Z,5.45
2018-03-18T02:37:00.153Z,6.55
2018-03-18T02:39:27.949Z,7.23
2018-03-18T02:41:55.570Z,5.80
2018-03-18T02:44:23.243Z,7.05
2018-03-18T02:46:50.862Z,6.75
2018-03-18T02:49:18.525Z,7.50
2018-03-18T02:51:46.137Z,6.10
2018-03-18T02:54:14.289Z,6.70
2018-03-18T02:56:41.957Z,6.93
2018-03-18T02:59:09.572Z,8.20
2018-03-18T03:01:37.241Z,6.05
2018-03-18T03:04:05.617Z,7.70
2018-03-18T03:06:34.037Z,6.43
2018-03-18T03:09:01.644Z,7.78
2018-03-18T03:11:29.317Z,6.63
2018-03-18T03:13:56.924Z,6.43
2018-03-18T03:16:24.584Z,5.60
2018-03-18T03:18:52.197Z,6.37
2018-03-18T03:21:19.851Z,6.60
2018-03-18T03:23:47.468Z,3.87
2018-03-18T03:26:15.125Z,7.97
2018-03-18T03:28:42.789Z,6.82
2018-03-18T03:31:10.420Z,6.17
2018-03-18T03:33:38.085Z,7.67
2018-03-18T03:36:05.760Z,6.70
2018-03-18T03:38:33.370Z,4.97
2018-03-18T03:41:01.793Z,6.90
2018-03-18T03:43:29.412Z,7.07
2018-03-18T03:45:57.078Z,6.95
2018-03-18T03:48:24.719Z,4.68
2018-03-18T03:50:53.145Z,6.60
2018-03-18T03:53:20.828Z,6.80
2018-03-18T03:55:48.438Z,5.37
2018-03-18T03:58:16.052Z,6.45
2018-03-18T04:00:43.701Z,6.33
2018-03-18T04:03:11.357Z,5.47
2018-03-18T04:05:39.015Z,6.57
2018-03-18T04:08:07.584Z,5.47
2018-03-18T04:10:35.260Z,6.53
2018-03-18T04:13:02.886Z,7.40
2018-03-18T04:15:30.556Z,6.30
2018-03-18T04:17:58.212Z,7.67
2018-03-18T04:20:25.827Z,8.17
2018-03-18T04:22:53.492Z,6.20
2018-03-18T04:25:21.108Z,6.43
2018-03-18T04:27:48.720Z,6.20
2018-03-18T04:30:16.444Z,6.13
2018-03-18T04:32:44.206Z,6.67
2018-03-18T04:35:13.622Z,5.57
2018-03-18T04:37:41.426Z,3.83
2018-03-18T04:40:09.080Z,6.43
2018-03-18T04:42:36.786Z,6.70
2018-03-18T04:45:05.339Z,4.60
2018-03-18T04:47:32.950Z,7.82
2018-03-18T04:50:00.613Z,5.70
2018-03-18T04:52:28.704Z,6.25
2018-03-18T04:54:57.136Z,5.30
2018-03-18T04:57:24.797Z,6.05
2018-03-18T04:59:53.009Z,4.90
2018-03-18T05:02:20.630Z,6.17
2018-03-18T05:04:48.281Z,5.22
2018-03-18T05:07:15.893Z,6.07
2018-03-18T05:09:44.328Z,4.40
2018-03-18T05:12:11.997Z,4.73
2018-03-18T05:14:39.675Z,5.60
2018-03-18T05:17:07.317Z,7.63
2018-03-18T05:19:35.077Z,4.65
2018-03-18T05:22:03.056Z,6.00
2018-03-18T05:24:30.678Z,5.40
2018-03-18T05:26:58.295Z,5.95
2018-03-18T05:29:26.745Z,6.03
2018-03-18T05:31:54.423Z,4.90
2018-03-18T05:34:22.036Z,5.18
2018-03-18T05:36:49.698Z,5.67
2018-03-18T05:39:17.312Z,5.10
2018-03-18T05:41:44.973Z,4.30
2018-03-18T05:44:12.629Z,3.93
2018-03-18T05:46:40.283Z,4.77
2018-03-18T05:49:07.921Z,5.10
2018-03-18T05:51:35.534Z,5.10
2018-03-18T05:54:03.448Z,4.37
2018-03-18T05:56:31.069Z,5.10
2018-03-18T05:58:58.680Z,5.93
2018-03-18T06:01:26.359Z,4.15
2018-03-18T06:03:53.973Z,6.30
2018-03-18T06:06:21.629Z,4.78
2018-03-18T06:08:49.257Z,2.60
2018-03-18T06:11:16.920Z,3.85
2018-03-18T06:13:44.566Z,3.30
2018-03-18T06:16:12.234Z,4.57
2018-03-18T06:18:40.668Z,5.10
2018-03-18T06:21:09.232Z,4.93
2018-03-18T06:23:36.903Z,4.53
2018-03-18T06:26:04.875Z,4.25
2018-03-18T06:28:32.481Z,5.20
2018-03-18T06:31:00.094Z,4.63
2018-03-18T06:33:28.253Z,4.03
2018-03-18T06:35:56.108Z,4.43
2018-03-18T06:38:23.722Z,3.03
2018-03-18T06:40:51.382Z,4.17
2018-03-18T06:43:18.992Z,4.10
2018-03-18T06:45:46.658Z,3.70
2018-03-18T06:48:15.073Z,4.54
2018-03-18T06:50:42.733Z,4.03
2018-03-18T06:53:11.857Z,3.73
2018-03-18T06:55:40.330Z,2.80
2018-03-18T06:58:08.798Z,3.62
2018-03-18T07:00:36.475Z,5.87
2018-03-18T07:03:04.097Z,3.62
2018-03-18T07:05:31.716Z,4.25
2018-03-18T07:07:59.373Z,4.93
2018-03-18T07:10:26.992Z,3.50
2018-03-18T07:12:54.662Z,3.97
2018-03-18T07:15:22.612Z,3.72
2018-03-18T07:17:50.636Z,3.70
2018-03-18T07:20:18.299Z,4.57
2018-03-18T07:22:45.913Z,2.83
2018-03-18T07:25:13.584Z,3.60
2018-03-18T07:27:41.508Z,3.30
2018-03-18T07:30:09.269Z,4.40
2018-03-18T07:32:36.905Z,3.87
2018-03-18T07:35:04.705Z,3.10
2018-03-18T07:37:32.357Z,4.10
2018-03-18T07:39:59.989Z,2.53
2018-03-18T07:42:27.648Z,4.50
2018-03-18T07:44:55.269Z,3.70
2018-03-18T07:47:22.929Z,4.73
2018-03-18T07:49:50.589Z,3.50
2018-03-18T07:52:18.258Z,3.93
2018-03-18T07:54:45.877Z,3.53
2018-03-18T07:57:13.505Z,3.33
2018-03-18T07:59:41.173Z,3.63
2018-03-18T08:02:08.792Z,3.70
2018-03-18T08:04:36.417Z,3.57
2018-03-18T08:07:04.076Z,2.80
2018-03-18T08:09:31.749Z,4.20
2018-03-18T08:11:59.845Z,3.43
2018-03-18T08:14:27.772Z,2.97
2018-03-18T08:16:55.429Z,3.60
2018-03-18T08:19:23.045Z,2.90
2018-03-18T08:21:51.045Z,3.17
2018-03-18T08:24:18.661Z,3.35
2018-03-18T08:26:46.275Z,2.50
2018-03-18T08:29:13.952Z,3.80
2018-03-18T08:31:41.569Z,3.00
2018-03-18T08:34:09.198Z,2.70
2018-03-18T08:36:37.625Z,2.40
2018-03-18T08:39:05.255Z,3.20
2018-03-18T08:41:32.900Z,4.23
2018-03-18T08:44:01.229Z,2.30
2018-03-18T08:46:28.853Z,3.03
2018-03-18T08:48:56.518Z,3.70
2018-03-18T08:51:24.899Z,3.10
2018-03-18T08:53:52.552Z,2.77
2018-03-18T08:56:20.222Z,3.83
2018-03-18T08:58:47.910Z,3.40
2018-03-18T09:01:15.573Z,2.75
2018-03-18T09:03:43.226Z,3.30
2018-03-18T09:06:11.505Z,2.75
2018-03-18T09:08:39.171Z,3.33
2018-03-18T09:11:06.845Z,2.93
2018-03-18T09:13:34.470Z,3.50
2018-03-18T09:16:02.082Z,2.50
2018-03-18T09:18:30.413Z,2.77
2018-03-18T09:20:58.029Z,3.12
2018-03-18T09:23:25.651Z,2.62
2018-03-18T09:25:53.509Z,4.00
2018-03-18T09:28:21.171Z,2.90
2018-03-18T09:30:49.376Z,3.05
2018-03-18T09:33:17.044Z,2.80
2018-03-18T09:35:45.960Z,3.00
2018-03-18T09:38:13.585Z,2.83
2018-03-18T09:40:41.257Z,2.80
2018-03-18T09:43:09.644Z,3.00
2018-03-18T09:45:38.093Z,3.20
2018-03-18T09:48:06.277Z,2.83
2018-03-18T09:50:34.122Z,2.80
2018-03-18T09:53:01.752Z,2.53
2018-03-18T09:55:29.376Z,2.67
2018-03-18T09:57:57.717Z,2.35
2018-03-18T10:00:25.964Z,3.00
2018-03-18T10:02:53.623Z,2.97
2018-03-18T10:05:21.241Z,2.97
2018-03-18T10:07:48.905Z,2.30
2018-03-18T10:10:16.523Z,3.17
2018-03-18T10:12:44.294Z,2.40
2018-03-18T10:15:11.967Z,2.40
2018-03-18T10:17:39.573Z,3.60
2018-03-18T10:20:07.241Z,3.23
2018-03-18T10:22:35.040Z,2.60
2018-03-18T10:25:02.648Z,2.90
2018-03-18T10:27:30.297Z,3.40
2018-03-18T10:29:58.728Z,2.50
2018-03-18T10:32:26.789Z,2.27
2018-03-18T10:34:55.065Z,2.30
2018-03-18T10:37:23.220Z,2.30
2018-03-18T10:39:51.803Z,2.33
2018-03-18T10:42:25.829Z,3.17
2018-03-18T10:44:53.796Z,2.60
2018-03-18T10:47:21.465Z,3.40
2018-03-18T10:49:49.849Z,2.13
2018-03-18T10:52:17.449Z,2.80
2018-03-18T10:54:45.868Z,2.00
2018-03-18T10:57:13.512Z,2.22
2018-03-18T10:59:41.175Z,1.90
2018-03-18T11:02:14.738Z,2.67
2018-03-18T11:04:43.101Z,2.93
2018-03-18T11:07:10.765Z,3.30
2018-03-18T11:09:38.427Z,1.90
2018-03-18T11:12:06.037Z,1.62
2018-03-18T11:14:33.648Z,2.95
2018-03-18T11:17:01.952Z,3.08
2018-03-18T11:19:29.608Z,2.53
2018-03-18T11:21:57.243Z,2.28
2018-03-18T11:24:24.908Z,2.65
2018-03-18T11:26:52.528Z,2.10
2018-03-18T11:29:20.201Z,3.03
2018-03-18T11:31:47.812Z,2.03
2018-03-18T11:34:23.592Z,2.47
2018-03-18T11:36:51.205Z,2.03
2018-03-18T11:39:19.777Z,2.53
2018-03-18T11:41:47.444Z,2.65
2018-03-18T11:44:15.879Z,2.33
2018-03-18T11:46:43.484Z,2.50
2018-03-18T11:49:11.755Z,2.73
2018-03-18T11:51:39.372Z,3.17
2018-03-18T11:54:06.994Z,2.77
2018-03-18T11:56:34.646Z,2.00
2018-03-18T11:59:02.298Z,2.80
2018-03-18T12:01:29.950Z,2.65
2018-03-18T12:03:57.606Z,2.80
2018-03-18T12:06:27.163Z,2.00
2018-03-18T12:08:59.501Z,2.43
2018-03-18T12:11:27.270Z,2.93
2018-03-18T12:13:54.939Z,3.40
2018-03-18T12:16:22.556Z,2.73
2018-03-18T12:18:50.225Z,3.40
2018-03-18T12:21:18.153Z,2.00
2018-03-18T12:23:45.766Z,2.90
2018-03-18T12:26:13.429Z,2.73
2018-03-18T12:28:41.043Z,2.97
2018-03-18T12:31:08.704Z,2.90
2018-03-18T12:33:36.377Z,3.40
2018-03-18T12:36:03.991Z,2.43
2018-03-18T12:38:31.604Z,2.50
2018-03-18T12:40:59.256Z,3.17
2018-03-18T12:43:30.462Z,2.40
2018-03-18T12:45:58.137Z,2.63
2018-03-18T12:48:25.940Z,2.53
2018-03-18T12:50:54.378Z,2.95
2018-03-18T12:53:21.992Z,3.10
2018-03-18T12:55:49.636Z,2.50
2018-03-18T12:58:18.022Z,1.75
2018-03-18T13:00:46.406Z,3.23
2018-03-18T13:03:14.833Z,2.80
2018-03-18T13:05:42.501Z,2.22
2018-03-18T13:08:10.713Z,2.92
2018-03-18T13:10:39.368Z,2.20
2018-03-18T13:13:06.989Z,2.35
2018-03-18T13:15:34.649Z,3.40
2018-03-18T13:18:02.261Z,2.53
2018-03-18T13:20:30.000Z,2.60
2018-03-18T13:22:57.652Z,2.03
2018-03-18T13:25:25.264Z,2.20
2018-03-18T13:30:43.920Z,2.75
2018-03-18T13:33:11.602Z,3.03
2018-03-18T13:35:39.216Z,2.60
2018-03-18T13:38:07.932Z,2.50
2018-03-18T13:40:35.552Z,2.20
2018-03-18T13:43:03.781Z,3.10
2018-03-18T13:45:31.429Z,2.60
2018-03-18T13:47:59.036Z,1.73
2018-03-18T13:50:26.813Z,2.33
2018-03-18T13:52:54.424Z,2.83
2018-03-18T13:55:22.068Z,2.93
2018-03-18T13:57:51.262Z,2.50
2018-03-18T14:00:18.924Z,2.27
2018-03-18T14:02:47.569Z,2.40
2018-03-18T14:05:15.178Z,1.83
2018-03-18T14:07:42.833Z,2.30
2018-03-18T14:10:11.257Z,2.33
2018-03-18T14:12:38.964Z,2.60
2018-03-18T14:15:06.565Z,2.37
2018-03-18T14:17:34.208Z,2.10
2018-03-18T14:20:01.929Z,2.30
2018-03-18T14:22:30.507Z,2.50
2018-03-18T14:24:58.125Z,2.20
2018-03-18T14:27:25.805Z,2.80
2018-03-18T14:29:53.475Z,2.08
2018-03-18T14:32:21.133Z,2.22
2018-03-18T14:34:48.753Z,2.23
2018-03-18T14:37:16.408Z,2.60
2018-03-18T14:39:44.101Z,1.87
2018-03-18T14:42:11.759Z,1.95
2018-03-18T14:44:39.840Z,1.97
2018-03-18T14:47:08.255Z,2.07
2018-03-18T14:49:36.697Z,2.77
2018-03-18T14:52:04.365Z,2.35
2018-03-18T14:54:31.973Z,1.53
2018-03-18T14:56:59.641Z,1.70
2018-03-18T14:59:27.432Z,1.90
2018-03-18T15:01:55.070Z,2.20
2018-03-18T15:04:22.878Z,2.58
2018-03-18T15:06:51.268Z,2.45
2018-03-18T15:09:18.888Z,1.90
2018-03-18T15:11:47.217Z,2.40
2018-03-18T15:14:19.597Z,3.12
2018-03-18T15:16:50.091Z,2.08
2018-03-18T15:19:23.522Z,1.83
2018-03-18T15:21:52.377Z,2.90
2018-03-18T15:24:20.949Z,2.60
2018-03-18T15:26:48.553Z,2.43
2018-03-18T15:29:16.820Z,3.15
2018-03-18T15:31:45.638Z,2.33
2018-03-18T15:34:13.284Z,2.20
2018-03-18T15:36:42.761Z,2.60
2018-03-18T15:39:11.017Z,3.00
2018-03-18T15:41:40.150Z,2.30
2018-03-18T15:44:07.822Z,2.17
2018-03-18T15:46:35.725Z,3.30
2018-03-18T15:49:04.942Z,2.70
2018-03-18T15:51:33.165Z,2.30
2018-03-18T15:54:01.495Z,2.00
2018-03-18T15:56:35.209Z,2.47
2018-03-18T15:59:08.176Z,2.70
2018-03-18T16:01:40.277Z,2.60
2018-03-18T16:04:13.082Z,2.53
2018-03-18T16:06:42.402Z,2.70
2018-03-18T16:09:10.784Z,2.80
2018-03-18T16:11:38.442Z,3.90
2018-03-18T16:14:08.283Z,2.70
2018-03-18T16:16:36.656Z,2.78
2018-03-18T16:19:05.554Z,3.73
2018-03-18T16:21:35.632Z,2.55
2018-03-18T16:24:03.283Z,2.33
2018-03-18T16:26:33.813Z,2.60
2018-03-18T16:29:13.261Z,2.65
2018-03-18T16:31:40.996Z,2.60
2018-03-18T16:34:08.628Z,3.30
2018-03-18T16:36:36.750Z,3.17
2018-03-18T16:39:05.148Z,2.73
2018-03-18T16:41:32.849Z,2.70
2018-03-18T16:44:00.550Z,2.70
2018-03-18T16:46:28.165Z,2.90
2018-03-18T16:48:55.985Z,3.17
2018-03-18T16:51:24.420Z,3.00
2018-03-18T16:53:53.247Z,2.37
2018-03-18T16:56:20.921Z,3.00
2018-03-18T16:58:48.566Z,3.00
2018-03-18T17:01:16.962Z,2.63
2018-03-18T17:03:44.641Z,2.22
2018-03-18T17:06:13.026Z,2.17
2018-03-18T17:08:40.715Z,3.10
2018-03-18T17:11:08.597Z,3.37
2018-03-18T17:13:36.261Z,3.25
2018-03-18T17:16:04.025Z,2.53
2018-03-18T17:18:32.089Z,2.83
2018-03-18T17:21:00.214Z,2.40
2018-03-18T17:23:29.212Z,3.00
2018-03-18T17:25:56.894Z,2.58
2018-03-18T17:28:24.512Z,3.03
2018-03-18T17:30:52.192Z,3.42
2018-03-18T17:33:19.804Z,2.70
2018-03-18T17:35:47.677Z,2.58
2018-03-18T17:38:15.298Z,3.10
2018-03-18T17:40:43.299Z,2.03
2018-03-18T17:43:10.920Z,3.33
2018-03-18T17:45:50.400Z,2.67
2018-03-18T17:48:29.824Z,3.30
2018-03-18T17:51:09.184Z,2.80
2018-03-18T17:53:49.297Z,3.60
2018-03-18T17:56:28.802Z,2.40
2018-03-18T17:58:57.224Z,2.10
2018-03-18T18:01:24.878Z,2.85
2018-03-18T18:03:52.533Z,1.93
2018-03-18T18:06:20.174Z,2.97
2018-03-18T18:08:47.846Z,3.60
2018-03-18T18:11:16.392Z,2.67
2018-03-18T18:13:45.861Z,3.50
2018-03-18T18:16:13.521Z,2.72
2018-03-18T18:18:41.181Z,3.03
2018-03-18T18:21:09.385Z,3.73
2018-03-18T18:23:37.068Z,2.90
2018-03-18T18:26:04.708Z,3.08
2018-03-18T18:28:38.321Z,2.92
2018-03-18T18:31:11.786Z,3.10
2018-03-18T18:33:46.023Z,3.67
2018-03-18T18:36:14.026Z,3.00
2018-03-18T18:38:41.642Z,4.50
2018-03-18T18:41:11.003Z,2.90
2018-03-18T18:43:39.260Z,2.90
2018-03-18T18:46:07.095Z,2.80
2018-03-18T18:48:35.516Z,2.33
2018-03-18T18:51:10.152Z,3.33
2018-03-18T18:53:37.777Z,3.73
2018-03-18T18:56:05.435Z,2.77
2018-03-18T18:58:33.305Z,4.03
2018-03-18T19:01:01.006Z,3.43
2018-03-18T19:03:28.662Z,3.28
2018-03-18T19:05:56.317Z,3.47
2018-03-18T19:08:23.973Z,3.58
2018-03-18T19:10:51.593Z,3.47
2018-03-18T19:13:19.248Z,3.07
2018-03-18T19:15:47.064Z,3.30
2018-03-18T19:18:14.729Z,4.18
2018-03-18T19:20:42.350Z,3.90
2018-03-18T19:23:10.562Z,3.37
2018-03-18T19:25:38.224Z,3.42
2018-03-18T19:28:06.789Z,3.50
2018-03-18T19:30:34.449Z,3.33
2018-03-18T19:33:02.057Z,4.05
2018-03-18T19:35:29.917Z,3.28
2018-03-18T19:37:57.532Z,4.10
2018-03-18T19:40:25.570Z,2.73
2018-03-18T19:42:54.902Z,2.97
2018-03-18T19:45:22.958Z,3.40
2018-03-18T19:47:51.569Z,3.10
2018-03-18T19:50:19.185Z,4.07
2018-03-18T19:52:46.841Z,3.40
2018-03-18T19:55:14.493Z,3.30
2018-03-18T19:57:42.145Z,3.67
2018-03-18T20:00:09.758Z,3.40
2018-03-18T20:02:37.412Z,3.80
2018-03-18T20:05:05.081Z,4.23
2018-03-18T20:07:32.749Z,3.03
2018-03-18T20:10:00.361Z,2.97
2018-03-18T20:12:28.012Z,3.37
2018-03-18T20:14:56.443Z,3.50
2018-03-18T20:17:24.057Z,3.23
2018-03-18T20:19:51.712Z,4.00
2018-03-18T20:22:19.324Z,4.00
2018-03-18T20:24:46.985Z,2.90
2018-03-18T20:27:14.600Z,2.80
2018-03-18T20:29:42.260Z,3.23
2018-03-18T20:32:09.886Z,3.43
2018-03-18T20:34:37.549Z,4.20
2018-03-18T20:37:05.288Z,3.73
2018-03-18T20:39:32.913Z,3.28
2018-03-18T20:42:00.577Z,3.50
2018-03-18T20:44:28.201Z,3.33
2018-03-18T20:46:56.077Z,3.62
2018-03-18T20:49:24.473Z,3.17
2018-03-18T20:51:52.127Z,4.47
2018-03-18T20:54:20.460Z,3.93
2018-03-18T20:56:48.109Z,3.77
2018-03-18T20:59:16.001Z,3.87
2018-03-18T21:01:43.928Z,2.70
2018-03-18T21:04:13.622Z,4.60
2018-03-18T21:06:41.608Z,3.63
2018-03-18T21:09:09.273Z,4.30
2018-03-18T21:11:38.143Z,3.67
2018-03-18T21:14:05.792Z,3.40
2018-03-18T21:16:35.047Z,3.60
2018-03-18T21:19:05.247Z,3.83
2018-03-18T21:21:33.095Z,3.87
2018-03-18T21:24:00.858Z,3.15
2018-03-18T21:26:29.288Z,3.80
2018-03-18T21:28:57.709Z,3.30
2018-03-18T21:31:29.643Z,4.05
2018-03-18T21:34:00.274Z,4.47
2018-03-18T21:36:28.673Z,3.03
2018-03-18T21:38:57.188Z,3.58
2018-03-18T21:41:26.051Z,3.70
2018-03-18T21:43:53.832Z,3.80
2018-03-18T21:46:21.642Z,4.55
2018-03-18T21:48:49.648Z,3.30
2018-03-18T21:51:17.299Z,3.90
2018-03-18T21:53:45.547Z,3.87
2018-03-18T21:56:13.224Z,4.03
2018-03-18T21:58:42.110Z,4.10
2018-03-18T22:01:10.389Z,5.13
2018-03-18T22:03:38.377Z,3.80
2018-03-18T22:06:07.980Z,3.63
2018-03-18T22:08:35.685Z,3.27
2018-03-18T22:11:07.267Z,3.63
2018-03-18T22:13:36.404Z,3.67
2018-03-18T22:16:05.617Z,3.60
2018-03-18T22:18:36.133Z,3.83
2018-03-18T22:21:06.233Z,3.07
2018-03-18T22:23:35.769Z,3.03
2018-03-18T22:26:03.377Z,3.97
2018-03-18T22:28:31.032Z,3.63
2018-03-18T22:30:59.225Z,4.40
2018-03-18T22:33:26.832Z,3.10
2018-03-18T22:35:56.270Z,3.12
2018-03-18T22:38:24.861Z,4.35
2018-03-18T22:40:53.280Z,3.53
2018-03-18T22:43:21.719Z,3.95
2018-03-18T22:45:49.815Z,3.93
2018-03-18T22:48:17.480Z,4.37
2018-03-18T22:50:48.207Z,3.80
2018-03-18T22:53:16.965Z,3.90
2018-03-18T22:55:46.284Z,4.15
2018-03-18T22:58:14.857Z,3.30
2018-03-18T23:00:42.467Z,3.73
2018-03-18T23:03:10.116Z,3.85
2018-03-18T23:05:37.768Z,3.58
2018-03-18T23:08:07.912Z,3.72
2018-03-18T23:10:37.316Z,3.25
2018-03-18T23:13:06.435Z,4.93
2018-03-18T23:15:35.736Z,3.37
2018-03-18T23:18:03.428Z,4.43
2018-03-18T23:20:31.050Z,3.90
2018-03-18T23:22:58.717Z,3.23
2018-03-18T23:25:26.325Z,4.10
2018-03-18T23:27:54.169Z,3.55
2018-03-18T23:30:21.816Z,4.57
2018-03-18T23:32:49.697Z,3.62
2018-03-18T23:35:18.684Z,3.72
2018-03-18T23:37:48.794Z,3.73
2018-03-18T23:40:16.669Z,5.30
2018-03-18T23:42:46.603Z,2.73
2018-03-18T23:45:16.016Z,3.90
2018-03-18T23:47:43.689Z,3.80
2018-03-18T23:50:12.110Z,3.70
2018-03-18T23:52:39.776Z,3.93
2018-03-18T23:55:07.944Z,4.18
2018-03-18T23:57:36.104Z,4.00
